createdAt,value
2018-07-31T00:01:18.529Z,22.83
2018-07-31T00:03:49.851Z,22.78
2018-07-31T00:06:24.769Z,22.76
2018-07-31T00:08:56.996Z,22.79
2018-07-31T00:11:28.456Z,22.77
2018-07-31T00:13:59.644Z,22.75
2018-07-31T00:16:30.846Z,22.78
2018-07-31T00:19:01.747Z,22.80
2018-07-31T00:21:33.599Z,22.78
2018-07-31T00:24:04.827Z,22.77
2018-07-31T00:26:36.213Z,22.79
2018-07-31T00:29:07.669Z,22.75
2018-07-31T00:31:38.808Z,22.63
2018-07-31T00:34:10.191Z,22.59
2018-07-31T00:36:43.006Z,22.58
2018-07-31T00:39:14.182Z,22.58
2018-07-31T00:41:45.143Z,22.52
2018-07-31T00:44:16.424Z,22.34
2018-07-31T00:46:47.396Z,22.26
2018-07-31T00:49:20.124Z,22.22
2018-07-31T00:51:53.091Z,22.14
2018-07-31T00:54:24.301Z,22.05
2018-07-31T00:56:56.210Z,22.18
2018-07-31T00:59:27.312Z,22.22
2018-07-31T01:01:58.320Z,22.16
2018-07-31T01:04:29.491Z,22.18
2018-07-31T01:07:00.571Z,22.17
2018-07-31T01:09:31.583Z,22.27
2018-07-31T01:12:02.650Z,22.30
2018-07-31T01:14:33.809Z,22.27
2018-07-31T01:17:05.248Z,22.25
2018-07-31T01:19:36.205Z,22.18
2018-07-31T01:22:08.253Z,22.09
2018-07-31T01:24:39.128Z,22.06
2018-07-31T01:27:10.400Z,22.11
2018-07-31T01:29:41.489Z,22.14
2018-07-31T01:32:13.452Z,22.09
2018-07-31T01:34:44.372Z,22.01
2018-07-31T01:37:15.307Z,22.06
2018-07-31T01:39:46.317Z,22.06
2018-07-31T01:42:17.568Z,22.14
2018-07-31T01:44:48.745Z,22.28
2018-07-31T01:47:19.919Z,22.36
2018-07-31T01:49:51.028Z,22.43
2018-07-31T01:52:22.187Z,22.38
2018-07-31T01:54:53.514Z,22.42
2018-07-31T01:57:24.707Z,22.43
2018-07-31T01:59:55.673Z,22.44
2018-07-31T02:02:28.613Z,22.44
2018-07-31T02:04:59.493Z,22.44
2018-07-31T02:07:30.709Z,22.43
2018-07-31T02:10:01.868Z,22.43
2018-07-31T02:12:32.958Z,22.45
2018-07-31T02:15:04.117Z,22.45
2018-07-31T02:17:35.253Z,22.36
2018-07-31T02:20:06.743Z,22.30
2018-07-31T02:22:39.731Z,22.23
2018-07-31T02:25:10.808Z,22.24
2018-07-31T02:27:41.932Z,22.21
2018-07-31T02:30:18.547Z,22.30
2018-07-31T02:32:49.867Z,22.17
2018-07-31T02:35:20.867Z,22.17
2018-07-31T02:37:52.216Z,22.16
2018-07-31T02:40:23.266Z,22.23
2018-07-31T02:42:54.273Z,22.29
2018-07-31T02:45:25.366Z,22.26
2018-07-31T02:47:56.506Z,22.35
2018-07-31T02:50:28.376Z,22.40
2018-07-31T02:53:01.114Z,22.31
2018-07-31T02:55:32.175Z,22.33
2018-07-31T02:58:03.188Z,22.24
2018-07-31T03:00:34.340Z,22.17
2018-07-31T03:03:05.421Z,22.11
2018-07-31T03:05:37.309Z,21.94
2018-07-31T03:08:08.579Z,21.81
2018-07-31T03:10:39.803Z,21.82
2018-07-31T03:13:10.981Z,21.87
2018-07-31T03:15:44.823Z,21.85
2018-07-31T03:18:16.803Z,22.07
2018-07-31T03:20:48.957Z,22.15
2018-07-31T03:23:20.887Z,22.25
2018-07-31T03:25:52.134Z,22.65
2018-07-31T03:28:24.343Z,23.14
2018-07-31T03:30:55.408Z,23.50
2018-07-31T03:33:26.607Z,23.78
2018-07-31T03:35:57.844Z,23.89
2018-07-31T03:38:28.984Z,24.10
2018-07-31T03:41:00.106Z,24.44
2018-07-31T03:43:31.311Z,24.53
2018-07-31T03:46:03.278Z,24.66
2018-07-31T03:48:35.448Z,24.93
2018-07-31T03:51:06.946Z,25.30
2018-07-31T03:53:39.713Z,25.53
2018-07-31T03:56:10.954Z,26.33
2018-07-31T03:58:42.732Z,26.90
2018-07-31T04:01:13.775Z,27.77
2018-07-31T04:03:44.917Z,28.39
2018-07-31T04:06:15.853Z,28.47
2018-07-31T04:08:47.931Z,29.58
2018-07-31T04:11:19.297Z,29.85
2018-07-31T04:13:50.283Z,29.83
2018-07-31T04:16:21.364Z,29.68
2018-07-31T04:18:52.675Z,30.26
2018-07-31T04:21:23.900Z,30.41
2018-07-31T04:23:55.148Z,29.73
2018-07-31T04:26:26.256Z,30.06
2018-07-31T04:28:57.339Z,29.68
2018-07-31T04:31:28.521Z,29.40
2018-07-31T04:33:59.635Z,29.37
2018-07-31T04:36:30.802Z,29.50
2018-07-31T04:39:01.885Z,29.77
2018-07-31T04:41:33.484Z,30.06
2018-07-31T04:44:04.718Z,30.54
2018-07-31T04:46:35.835Z,31.21
2018-07-31T04:49:06.813Z,30.91
2018-07-31T04:51:37.825Z,31.58
2018-07-31T04:54:08.916Z,30.06
2018-07-31T04:56:40.142Z,30.15
2018-07-31T04:59:11.623Z,29.47
2018-07-31T05:01:42.568Z,30.01
2018-07-31T05:04:13.799Z,30.42
2018-07-31T05:06:44.823Z,30.75
2018-07-31T05:09:15.867Z,31.17
2018-07-31T05:11:46.889Z,31.46
2018-07-31T05:14:17.914Z,32.80
2018-07-31T05:16:48.798Z,32.72
2018-07-31T05:19:19.884Z,33.02
2018-07-31T05:21:51.310Z,32.72
2018-07-31T05:24:22.571Z,33.72
2018-07-31T05:26:53.687Z,34.14
2018-07-31T05:29:24.627Z,34.22
2018-07-31T05:31:55.548Z,34.67
2018-07-31T05:34:26.653Z,33.39
2018-07-31T05:36:58.927Z,34.25
2018-07-31T05:39:30.897Z,33.14
2018-07-31T05:42:02.474Z,33.16
2018-07-31T05:44:33.477Z,33.26
2018-07-31T05:47:04.490Z,31.86
2018-07-31T05:49:35.843Z,31.78
2018-07-31T05:52:07.358Z,32.34
2018-07-31T05:54:39.102Z,31.22
2018-07-31T05:57:10.670Z,30.91
2018-07-31T05:59:42.185Z,30.52
2018-07-31T06:02:13.492Z,30.46
2018-07-31T06:04:44.646Z,30.13
2018-07-31T06:07:16.535Z,29.97
2018-07-31T06:09:47.920Z,30.21
2018-07-31T06:12:19.160Z,30.07
2018-07-31T06:14:50.381Z,30.93
2018-07-31T06:17:22.607Z,30.90
2018-07-31T06:19:53.894Z,30.48
2018-07-31T06:22:25.117Z,30.11
2018-07-31T06:25:05.828Z,30.61
2018-07-31T06:27:38.335Z,30.91
2018-07-31T06:30:12.345Z,30.38
2018-07-31T06:32:44.139Z,29.77
2018-07-31T06:35:15.397Z,29.96
2018-07-31T06:37:47.703Z,30.91
2018-07-31T06:40:20.484Z,31.44
2018-07-31T06:42:51.829Z,31.16
2018-07-31T06:45:23.715Z,31.20
2018-07-31T06:47:54.911Z,31.08
2018-07-31T06:50:26.005Z,30.64
2018-07-31T06:52:58.144Z,31.31
2018-07-31T06:55:29.236Z,31.95
2018-07-31T06:58:00.617Z,31.59
2018-07-31T07:00:31.999Z,31.87
2018-07-31T07:03:04.624Z,32.78
2018-07-31T07:05:36.697Z,33.86
2018-07-31T07:08:07.989Z,34.14
2018-07-31T07:10:39.172Z,34.76
2018-07-31T07:13:12.172Z,35.55
2018-07-31T07:15:43.758Z,34.22
2018-07-31T07:18:16.932Z,35.07
2018-07-31T07:20:48.358Z,35.23
2018-07-31T07:23:20.097Z,33.81
2018-07-31T07:25:52.753Z,32.90
2018-07-31T07:28:24.007Z,32.23
2018-07-31T07:30:55.076Z,31.91
2018-07-31T07:33:26.237Z,30.42
2018-07-31T07:35:57.671Z,30.26
2018-07-31T07:38:28.806Z,31.25
2018-07-31T07:40:59.948Z,31.28
2018-07-31T07:43:31.376Z,30.19
2018-07-31T07:46:02.652Z,30.38
2018-07-31T07:48:33.726Z,30.96
2018-07-31T07:51:05.538Z,31.02
2018-07-31T07:53:36.565Z,30.59
2018-07-31T07:56:07.707Z,30.34
2018-07-31T07:58:38.791Z,30.67
2018-07-31T08:01:09.867Z,31.45
2018-07-31T08:03:41.082Z,31.27
2018-07-31T08:06:12.690Z,31.08
2018-07-31T08:08:44.075Z,31.19
2018-07-31T08:11:15.153Z,31.05
2018-07-31T08:13:46.221Z,31.08
2018-07-31T08:16:17.360Z,31.28
2018-07-31T08:18:48.680Z,31.20
2018-07-31T08:21:20.474Z,31.30
2018-07-31T08:23:55.279Z,31.18
2018-07-31T08:26:28.477Z,30.80
2018-07-31T08:28:59.544Z,30.92
2018-07-31T08:31:31.540Z,31.57
2018-07-31T08:34:03.344Z,31.67
2018-07-31T08:36:34.633Z,31.35
2018-07-31T08:39:07.398Z,31.82
2018-07-31T08:41:38.905Z,32.04
2018-07-31T08:44:10.124Z,32.05
2018-07-31T08:46:41.213Z,32.10
2018-07-31T08:49:12.292Z,32.11
2018-07-31T08:51:43.379Z,31.85
2018-07-31T08:54:16.840Z,32.05
2018-07-31T08:56:50.233Z,32.28
2018-07-31T08:59:21.371Z,32.30
2018-07-31T09:01:55.544Z,32.44
2018-07-31T09:04:26.634Z,32.47
2018-07-31T09:06:58.067Z,32.36
2018-07-31T09:09:29.126Z,32.17
2018-07-31T09:12:00.137Z,31.89
2018-07-31T09:14:31.374Z,32.13
2018-07-31T09:17:02.613Z,32.40
2018-07-31T09:19:33.584Z,32.29
2018-07-31T09:22:05.782Z,32.44
2018-07-31T09:24:36.901Z,32.41
2018-07-31T09:27:08.193Z,32.52
2018-07-31T09:29:39.361Z,32.17
2018-07-31T09:32:10.442Z,32.29
2018-07-31T09:34:47.954Z,32.01
2018-07-31T09:37:19.736Z,31.70
2018-07-31T09:39:50.856Z,31.93
2018-07-31T09:42:24.585Z,31.65
2018-07-31T09:44:56.006Z,31.96
2018-07-31T09:47:29.576Z,31.93
2018-07-31T09:50:01.892Z,32.02
2018-07-31T09:52:33.096Z,31.90
2018-07-31T09:55:05.132Z,31.38
2018-07-31T09:57:38.779Z,31.74
2018-07-31T10:00:10.074Z,31.55
2018-07-31T10:02:41.150Z,31.87
2018-07-31T10:05:12.279Z,31.90
2018-07-31T10:07:43.374Z,31.91
2018-07-31T10:10:15.109Z,31.82
2018-07-31T10:12:46.047Z,31.81
2018-07-31T10:15:17.464Z,31.78
2018-07-31T10:17:48.737Z,31.28
2018-07-31T10:20:19.619Z,31.19
2018-07-31T10:22:51.628Z,31.43
2018-07-31T10:25:22.984Z,30.94
2018-07-31T10:27:54.026Z,31.23
2018-07-31T10:30:25.030Z,31.27
2018-07-31T10:32:56.031Z,31.06
2018-07-31T10:35:27.608Z,30.74
2018-07-31T10:37:58.789Z,30.87
2018-07-31T10:40:29.885Z,30.95
2018-07-31T10:43:01.028Z,31.24
2018-07-31T10:45:32.087Z,31.55
2018-07-31T10:48:04.163Z,31.68
2018-07-31T10:50:35.319Z,31.38
2018-07-31T10:53:06.313Z,30.85
2018-07-31T10:55:37.704Z,30.48
2018-07-31T10:58:08.676Z,30.50
2018-07-31T11:00:39.990Z,30.94
2018-07-31T11:03:11.409Z,31.19
2018-07-31T11:05:43.183Z,31.40
2018-07-31T11:08:14.603Z,31.63
2018-07-31T11:10:46.522Z,31.71
2018-07-31T11:13:17.553Z,31.49
2018-07-31T11:15:52.646Z,31.86
2018-07-31T11:18:23.741Z,32.25
2018-07-31T11:20:55.109Z,32.32
2018-07-31T11:23:26.196Z,31.98
2018-07-31T11:25:58.019Z,32.04
2018-07-31T11:28:31.660Z,31.82
2018-07-31T11:31:03.772Z,31.84
2018-07-31T11:33:35.101Z,31.61
2018-07-31T11:36:06.444Z,31.76
2018-07-31T11:38:37.626Z,31.94
2018-07-31T11:41:08.624Z,31.57
2018-07-31T11:43:40.096Z,31.42
2018-07-31T11:46:11.977Z,31.35
2018-07-31T11:48:43.089Z,30.99
2018-07-31T11:51:14.035Z,30.25
2018-07-31T11:53:45.056Z,29.80
2018-07-31T11:56:16.106Z,30.29
2018-07-31T11:58:49.005Z,30.60
2018-07-31T12:01:19.964Z,30.93
2018-07-31T12:03:51.160Z,31.05
2018-07-31T12:06:22.492Z,31.07
2018-07-31T12:08:53.894Z,31.17
2018-07-31T12:11:26.479Z,31.26
2018-07-31T12:13:58.265Z,31.39
2018-07-31T12:16:29.749Z,30.86
2018-07-31T12:19:02.633Z,31.00
2018-07-31T12:21:34.757Z,31.05
2018-07-31T12:24:05.782Z,30.05
2018-07-31T12:26:37.068Z,30.43
2018-07-31T12:29:08.201Z,30.25
2018-07-31T12:31:39.569Z,30.73
2018-07-31T12:34:11.520Z,31.14
2018-07-31T12:36:45.739Z,30.77
2018-07-31T12:39:16.923Z,30.97
2018-07-31T12:41:49.882Z,31.20
2018-07-31T12:44:21.988Z,31.20
2018-07-31T12:46:53.449Z,31.00
2018-07-31T12:49:24.671Z,30.98
2018-07-31T12:51:55.612Z,31.10
2018-07-31T12:54:26.731Z,31.02
2018-07-31T12:56:58.604Z,30.89
2018-07-31T12:59:31.747Z,30.83
2018-07-31T13:02:02.617Z,30.55
2018-07-31T13:04:33.770Z,30.59
2018-07-31T13:07:04.892Z,30.48
2018-07-31T13:09:37.334Z,30.49
2018-07-31T13:12:08.390Z,30.57
2018-07-31T13:14:39.886Z,30.52
2018-07-31T13:17:11.090Z,30.10
2018-07-31T13:19:42.772Z,30.37
2018-07-31T13:22:14.736Z,30.05
2018-07-31T13:24:45.706Z,29.95
2018-07-31T13:27:16.616Z,29.82
2018-07-31T13:29:48.750Z,29.20
2018-07-31T13:32:20.733Z,29.38
2018-07-31T13:34:52.045Z,29.39
2018-07-31T13:37:23.067Z,29.76
2018-07-31T13:39:54.800Z,29.81
2018-07-31T13:42:25.588Z,30.08
2018-07-31T13:44:57.131Z,30.15
2018-07-31T13:47:28.485Z,30.07
2018-07-31T13:49:59.188Z,29.87
2018-07-31T13:52:30.206Z,29.88
2018-07-31T13:55:02.197Z,29.91
2018-07-31T13:57:32.960Z,30.05
2018-07-31T14:00:05.639Z,30.20
2018-07-31T14:02:36.538Z,30.11
2018-07-31T14:05:07.563Z,30.08
2018-07-31T14:07:38.340Z,30.06
2018-07-31T14:10:09.085Z,30.28
2018-07-31T14:12:39.908Z,30.15
2018-07-31T14:15:12.070Z,30.27
2018-07-31T14:17:43.335Z,30.22
2018-07-31T14:20:15.273Z,30.36
2018-07-31T14:22:46.290Z,30.46
2018-07-31T14:25:17.470Z,30.57
2018-07-31T14:27:48.244Z,30.32
2018-07-31T14:30:19.091Z,30.32
2018-07-31T14:32:50.226Z,30.05
2018-07-31T14:35:21.192Z,30.03
2018-07-31T14:37:52.515Z,29.99
2018-07-31T14:40:24.219Z,30.02
2018-07-31T14:42:54.897Z,29.35
2018-07-31T14:45:25.587Z,29.57
2018-07-31T14:47:56.603Z,29.79
2018-07-31T14:50:27.649Z,29.81
2018-07-31T14:52:58.798Z,29.85
2018-07-31T14:55:29.886Z,29.70
2018-07-31T14:58:00.650Z,29.41
2018-07-31T15:00:32.975Z,29.39
2018-07-31T15:03:03.749Z,29.18
2018-07-31T15:05:34.844Z,29.10
2018-07-31T15:08:05.671Z,29.24
2018-07-31T15:10:36.555Z,29.24
2018-07-31T15:13:07.335Z,29.04
2018-07-31T15:15:38.220Z,29.37
2018-07-31T15:18:09.154Z,29.27
2018-07-31T15:20:46.896Z,29.16
2018-07-31T15:23:24.680Z,28.97
2018-07-31T15:25:56.262Z,28.78
2018-07-31T15:28:27.137Z,28.91
2018-07-31T15:30:58.496Z,28.81
2018-07-31T15:33:30.188Z,28.96
2018-07-31T15:36:01.106Z,28.96
2018-07-31T15:38:31.880Z,28.99
2018-07-31T15:41:02.640Z,28.87
2018-07-31T15:43:34.497Z,29.12
2018-07-31T15:46:05.419Z,29.18
2018-07-31T15:48:36.185Z,29.01
2018-07-31T15:51:07.911Z,29.20
2018-07-31T15:53:38.804Z,29.38
2018-07-31T15:56:10.392Z,29.47
2018-07-31T15:58:41.558Z,29.45
2018-07-31T16:01:13.688Z,29.49
2018-07-31T16:03:45.373Z,29.21
2018-07-31T16:06:16.414Z,28.91
2018-07-31T16:08:48.234Z,28.90
2018-07-31T16:11:19.143Z,28.96
2018-07-31T16:13:49.960Z,28.99
2018-07-31T16:16:21.071Z,29.01
2018-07-31T16:18:52.445Z,28.90
2018-07-31T16:21:23.137Z,28.92
2018-07-31T16:23:59.474Z,28.97
2018-07-31T16:26:30.264Z,28.97
2018-07-31T16:29:02.171Z,28.84
2018-07-31T16:31:32.931Z,28.86
2018-07-31T16:34:04.223Z,28.83
2018-07-31T16:36:34.935Z,28.71
2018-07-31T16:39:08.298Z,28.57
2018-07-31T16:41:39.283Z,28.46
2018-07-31T16:44:16.770Z,28.34
2018-07-31T16:46:47.636Z,28.31
2018-07-31T16:49:19.005Z,27.95
2018-07-31T16:51:49.846Z,28.01
2018-07-31T16:54:20.935Z,28.03
2018-07-31T16:56:52.657Z,28.00
2018-07-31T16:59:23.377Z,27.68
2018-07-31T17:01:54.231Z,27.41
2018-07-31T17:04:25.131Z,27.26
2018-07-31T17:06:55.840Z,27.37
2018-07-31T17:09:26.562Z,27.36
2018-07-31T17:11:57.685Z,27.35
2018-07-31T17:14:28.451Z,27.23
2018-07-31T17:16:59.237Z,27.15
2018-07-31T17:19:30.075Z,26.97
2018-07-31T17:22:00.846Z,26.80
2018-07-31T17:24:31.831Z,26.67
2018-07-31T17:27:02.552Z,26.46
2018-07-31T17:29:33.224Z,26.35
2018-07-31T17:32:04.048Z,26.39
2018-07-31T17:34:35.959Z,26.37
2018-07-31T17:37:07.945Z,26.32
2018-07-31T17:39:44.363Z,26.27
2018-07-31T17:42:15.471Z,26.23
2018-07-31T17:44:48.026Z,26.15
2018-07-31T17:47:18.895Z,26.10
2018-07-31T17:49:49.761Z,26.01
2018-07-31T17:52:23.976Z,25.92
2018-07-31T17:54:54.747Z,25.97
2018-07-31T17:57:25.626Z,25.98
2018-07-31T17:59:57.175Z,25.97
2018-07-31T18:02:30.520Z,25.89
2018-07-31T18:05:03.011Z,25.80
2018-07-31T18:07:33.824Z,25.68
2018-07-31T18:10:05.055Z,25.75
2018-07-31T18:12:36.413Z,25.71
2018-07-31T18:15:07.824Z,25.60
2018-07-31T18:17:40.290Z,25.57
2018-07-31T18:20:11.930Z,25.56
2018-07-31T18:22:42.889Z,25.49
2018-07-31T18:25:16.919Z,25.45
2018-07-31T18:27:48.798Z,25.51
2018-07-31T18:30:19.836Z,25.32
2018-07-31T18:32:51.543Z,25.32
2018-07-31T18:35:25.232Z,25.22
2018-07-31T18:37:56.713Z,25.27
2018-07-31T18:40:27.818Z,25.16
2018-07-31T18:42:58.691Z,25.03
2018-07-31T18:45:29.802Z,24.91
2018-07-31T18:48:00.907Z,24.80
2018-07-31T18:50:32.991Z,24.79
2018-07-31T18:53:05.561Z,24.74
2018-07-31T18:55:36.848Z,24.71
2018-07-31T18:58:07.973Z,24.64
2018-07-31T19:00:40.263Z,24.66
2018-07-31T19:03:12.270Z,24.67
2018-07-31T19:05:44.280Z,24.66
2018-07-31T19:08:16.876Z,24.59
2018-07-31T19:10:48.516Z,24.49
2018-07-31T19:13:19.455Z,24.50
2018-07-31T19:15:51.101Z,24.41
2018-07-31T19:18:22.486Z,24.39
2018-07-31T19:20:54.413Z,24.33
2018-07-31T19:23:25.366Z,24.28
2018-07-31T19:25:56.635Z,24.26
2018-07-31T19:28:27.639Z,24.27
2018-07-31T19:30:59.365Z,24.24
2018-07-31T19:33:31.217Z,24.15
2018-07-31T19:36:05.670Z,24.09
2018-07-31T19:38:37.589Z,24.02
2018-07-31T19:41:08.787Z,24.05
2018-07-31T19:43:39.690Z,24.08
2018-07-31T19:46:10.689Z,23.94
2018-07-31T19:48:42.985Z,23.93
2018-07-31T19:51:15.444Z,23.89
2018-07-31T19:53:47.254Z,23.91
2018-07-31T19:56:18.381Z,24.04
2018-07-31T19:58:49.275Z,24.11
2018-07-31T20:01:20.659Z,24.13
2018-07-31T20:03:51.564Z,24.25
2018-07-31T20:06:23.560Z,24.34
2018-07-31T20:08:56.525Z,24.33
2018-07-31T20:11:28.361Z,24.22
2018-07-31T20:13:59.831Z,24.13
2018-07-31T20:16:31.942Z,24.02
2018-07-31T20:19:04.755Z,24.08
2018-07-31T20:21:36.014Z,24.16
2018-07-31T20:24:07.169Z,24.17
2018-07-31T20:26:38.366Z,24.15
2018-07-31T20:29:09.663Z,24.26
2018-07-31T20:31:41.296Z,24.21
2018-07-31T20:34:13.473Z,24.15
2018-07-31T20:36:44.629Z,24.10
2018-07-31T20:39:16.723Z,24.10
2018-07-31T20:41:48.017Z,24.01
2018-07-31T20:44:19.404Z,23.94
2018-07-31T20:46:50.390Z,23.89
2018-07-31T20:49:21.247Z,23.84
2018-07-31T20:51:52.429Z,23.77
2018-07-31T20:54:23.426Z,23.68
2018-07-31T20:56:54.522Z,23.64
2018-07-31T20:59:25.601Z,23.73
2018-07-31T21:01:56.447Z,23.74
2018-07-31T21:04:27.703Z,23.67
2018-07-31T21:06:58.911Z,23.61
2018-07-31T21:09:30.057Z,23.65
2018-07-31T21:12:01.920Z,23.69
2018-07-31T21:14:33.966Z,23.68
2018-07-31T21:17:04.839Z,23.69
2018-07-31T21:19:37.493Z,23.68
2018-07-31T21:22:09.598Z,23.62
2018-07-31T21:24:41.095Z,23.69
2018-07-31T21:27:12.121Z,23.75
2018-07-31T21:29:44.149Z,23.76
2018-07-31T21:32:16.410Z,23.75
2018-07-31T21:34:47.915Z,23.79
2018-07-31T21:37:20.730Z,23.88
2018-07-31T21:39:52.536Z,23.84
2018-07-31T21:42:26.024Z,23.89
2018-07-31T21:44:57.453Z,23.81
2018-07-31T21:47:31.285Z,23.82
2018-07-31T21:50:04.058Z,23.77
2018-07-31T21:52:36.254Z,23.78
2018-07-31T21:55:07.771Z,23.79
2018-07-31T22:06:39.159Z,23.85
2018-07-31T22:09:10.771Z,23.87
2018-07-31T22:11:42.446Z,24.01
2018-07-31T22:14:13.479Z,23.98
2018-07-31T22:16:45.597Z,23.97
2018-07-31T22:19:18.507Z,23.97
2018-07-31T22:21:50.130Z,23.91
2018-07-31T22:24:22.225Z,23.99
2018-07-31T22:26:54.181Z,23.86
2018-07-31T22:29:25.620Z,23.74
2018-07-31T22:31:57.202Z,23.55
2018-07-31T22:34:28.241Z,23.42
2018-07-31T22:36:59.595Z,23.43
2018-07-31T22:39:33.178Z,23.37
2018-07-31T22:42:07.779Z,23.28
2018-07-31T22:44:40.857Z,23.24
2018-07-31T22:47:13.802Z,23.19
2018-07-31T22:49:46.053Z,23.10
2018-07-31T22:52:21.200Z,23.06
2018-07-31T22:54:55.039Z,22.98
2018-07-31T22:57:27.282Z,22.96
2018-07-31T22:59:59.081Z,23.08
2018-07-31T23:02:30.440Z,23.01
2018-07-31T23:05:04.654Z,22.93
2018-07-31T23:07:38.573Z,22.80
2018-07-31T23:10:10.270Z,22.77
2018-07-31T23:12:41.711Z,22.75
2018-07-31T23:15:14.786Z,22.75
2018-07-31T23:17:47.229Z,22.70
2018-07-31T23:20:19.192Z,22.65
2018-07-31T23:22:53.207Z,22.63
2018-07-31T23:25:27.043Z,22.60
2018-07-31T23:28:00.163Z,22.64
2018-07-31T23:30:32.945Z,22.63
2018-07-31T23:33:07.569Z,22.54
2018-07-31T23:35:42.376Z,22.57
2018-07-31T23:38:17.517Z,22.58
2018-07-31T23:40:51.344Z,22.53
2018-07-31T23:43:24.744Z,22.53
2018-07-31T23:45:59.026Z,22.54
2018-07-31T23:48:32.824Z,22.57
2018-07-31T23:51:08.053Z,22.53
2018-07-31T23:53:44.040Z,22.59
2018-07-31T23:56:18.463Z,22.53
2018-07-31T23:58:52.593Z,22.55
